SPKAR EPZP-EPZP
Flight info
| Callsign | SPKAR |
|---|---|
| Flight time | 0h 55m |
| Altitude | 3000 |
| Route | DCT |
| Aircraft | P208/L-SY/C |
Departure
| Time | 2026-04-19 16:31 |
|---|---|
| Airport | Zielona Góra-Przylep Airfield (EPZP) |
Arrival
| Time | 2026-04-19 17:27 |
|---|---|
| Airport | Zielona Góra-Przylep Airfield (EPZP) |
| Time | Latitude | Longitude | Altitude | Speed | Heading |
|---|---|---|---|---|---|
| 2026-04-19 16:24 | 51.97521 | 15.46441 | 256 ft | 0 kts | 277° |
| 2026-04-19 16:28 | 51.97523 | 15.46409 | 256 ft | 12 kts | 272° |
| 2026-04-19 16:28 | 51.97567 | 15.46288 | 256 ft | 13 kts | 338° |
| 2026-04-19 16:28 | 51.97666 | 15.46186 | 250 ft | 18 kts | 350° |
| 2026-04-19 16:28 | 51.97761 | 15.46273 | 251 ft | 18 kts | 58° |
| 2026-04-19 16:29 | 51.97856 | 15.46511 | 249 ft | 32 kts | 56° |
| 2026-04-19 16:29 | 51.97967 | 15.46809 | 247 ft | 28 kts | 65° |
| 2026-04-19 16:29 | 51.98047 | 15.47051 | 248 ft | 21 kts | 52° |
| 2026-04-19 16:29 | 51.98089 | 15.47078 | 249 ft | 0 kts | 326° |
| 2026-04-19 16:30 | 51.98100 | 15.47062 | 250 ft | 0 kts | 281° |
| 2026-04-19 16:30 | 51.98053 | 15.46885 | 249 ft | 40 kts | 245° |
| 2026-04-19 16:30 | 51.97888 | 15.46305 | 332 ft | 60 kts | 247° |
| 2026-04-19 16:30 | 51.97725 | 15.45764 | 540 ft | 55 kts | 244° |
| 2026-04-19 16:31 | 51.97645 | 15.45148 | 669 ft | 63 kts | 284° |
| 2026-04-19 16:31 | 51.97944 | 15.44497 | 774 ft | 82 kts | 317° |
| 2026-04-19 16:31 | 51.98444 | 15.44353 | 948 ft | 86 kts | 40° |
| 2026-04-19 16:31 | 51.98898 | 15.45132 | 910 ft | 106 kts | 44° |
| 2026-04-19 16:32 | 51.99435 | 15.45995 | 955 ft | 108 kts | 43° |
| 2026-04-19 16:32 | 51.99850 | 15.46921 | 1114 ft | 99 kts | 73° |
| 2026-04-19 16:32 | 51.99766 | 15.48095 | 1008 ft | 114 kts | 120° |
| 2026-04-19 16:32 | 51.99109 | 15.48714 | 854 ft | 108 kts | 181° |
| 2026-04-19 16:33 | 51.98536 | 15.48216 | 638 ft | 95 kts | 233° |
| 2026-04-19 16:33 | 51.98242 | 15.47274 | 340 ft | 86 kts | 242° |
| 2026-04-19 16:33 | 51.97989 | 15.46516 | 246 ft | 66 kts | 244° |
| 2026-04-19 16:33 | 51.97789 | 15.45881 | 304 ft | 62 kts | 243° |
| 2026-04-19 16:34 | 51.97570 | 15.45338 | 504 ft | 61 kts | 236° |
| 2026-04-19 16:34 | 51.97342 | 15.44735 | 652 ft | 69 kts | 256° |
| 2026-04-19 16:34 | 51.97529 | 15.43940 | 620 ft | 93 kts | 319° |
| 2026-04-19 16:34 | 51.98121 | 15.43600 | 712 ft | 97 kts | 2° |
| 2026-04-19 16:35 | 51.98668 | 15.44183 | 820 ft | 98 kts | 59° |
| 2026-04-19 16:35 | 51.99025 | 15.45227 | 764 ft | 111 kts | 61° |
| 2026-04-19 16:35 | 51.99394 | 15.46329 | 794 ft | 110 kts | 60° |
| 2026-04-19 16:35 | 51.99746 | 15.47408 | 827 ft | 99 kts | 72° |
| 2026-04-19 16:36 | 51.99551 | 15.48284 | 844 ft | 85 kts | 152° |
| 2026-04-19 16:36 | 51.99027 | 15.48667 | 731 ft | 79 kts | 181° |
| 2026-04-19 16:36 | 51.98578 | 15.48188 | 555 ft | 83 kts | 233° |
| 2026-04-19 16:36 | 51.98321 | 15.47448 | 356 ft | 69 kts | 245° |
| 2026-04-19 16:37 | 51.98134 | 15.46820 | 256 ft | 54 kts | 244° |
| 2026-04-19 16:37 | 51.97951 | 15.46327 | 246 ft | 60 kts | 241° |
| 2026-04-19 16:37 | 51.97774 | 15.45759 | 437 ft | 57 kts | 243° |
| 2026-04-19 16:37 | 51.97554 | 15.45170 | 570 ft | 67 kts | 240° |
| 2026-04-19 16:38 | 51.97427 | 15.44398 | 684 ft | 78 kts | 293° |
| 2026-04-19 16:38 | 51.97918 | 15.43963 | 770 ft | 93 kts | 341° |
| 2026-04-19 16:38 | 51.98578 | 15.43826 | 824 ft | 98 kts | 21° |
| 2026-04-19 16:38 | 51.98911 | 15.44757 | 902 ft | 101 kts | 71° |
| 2026-04-19 16:39 | 51.99169 | 15.45877 | 887 ft | 111 kts | 70° |
| 2026-04-19 16:39 | 51.99413 | 15.47061 | 954 ft | 107 kts | 73° |
| 2026-04-19 16:39 | 51.99600 | 15.48223 | 1015 ft | 108 kts | 87° |
| 2026-04-19 16:39 | 51.99251 | 15.49209 | 1021 ft | 105 kts | 153° |
| 2026-04-19 16:40 | 51.98656 | 15.49120 | 896 ft | 84 kts | 226° |
| 2026-04-19 16:40 | 51.98467 | 15.48309 | 615 ft | 75 kts | 258° |
| 2026-04-19 16:40 | 51.98315 | 15.47575 | 407 ft | 64 kts | 241° |
| 2026-04-19 16:40 | 51.98098 | 15.46956 | 265 ft | 63 kts | 242° |
| 2026-04-19 16:41 | 51.97892 | 15.46374 | 246 ft | 58 kts | 241° |
| 2026-04-19 16:41 | 51.97690 | 15.45752 | 362 ft | 63 kts | 243° |
| 2026-04-19 16:41 | 51.97480 | 15.45175 | 588 ft | 54 kts | 251° |
| 2026-04-19 16:41 | 51.97582 | 15.44605 | 756 ft | 59 kts | 305° |
| 2026-04-19 16:42 | 51.97878 | 15.44031 | 873 ft | 70 kts | 310° |
| 2026-04-19 16:42 | 51.98389 | 15.43608 | 861 ft | 94 kts | 2° |
| 2026-04-19 16:42 | 51.98993 | 15.44228 | 828 ft | 105 kts | 48° |
| 2026-04-19 16:42 | 51.99439 | 15.45149 | 865 ft | 108 kts | 52° |
| 2026-04-19 16:43 | 51.99902 | 15.46136 | 870 ft | 111 kts | 53° |
| 2026-04-19 16:43 | 52.00202 | 15.47217 | 970 ft | 102 kts | 97° |
| 2026-04-19 16:43 | 51.99862 | 15.48165 | 1014 ft | 104 kts | 136° |
| 2026-04-19 16:43 | 51.99261 | 15.48666 | 878 ft | 100 kts | 168° |
| 2026-04-19 16:44 | 51.98655 | 15.48564 | 789 ft | 75 kts | 226° |
| 2026-04-19 16:44 | 51.98411 | 15.47828 | 486 ft | 75 kts | 242° |
| 2026-04-19 16:44 | 51.98163 | 15.47132 | 286 ft | 66 kts | 242° |
| 2026-04-19 16:44 | 51.97985 | 15.46553 | 245 ft | 51 kts | 245° |
| 2026-04-19 16:45 | 51.97790 | 15.45883 | 259 ft | 79 kts | 245° |
| 2026-04-19 16:45 | 51.97573 | 15.45169 | 547 ft | 68 kts | 243° |
| 2026-04-19 16:45 | 51.97402 | 15.44446 | 740 ft | 70 kts | 281° |
| 2026-04-19 16:45 | 51.97828 | 15.43944 | 808 ft | 88 kts | 335° |
| 2026-04-19 16:46 | 51.98358 | 15.44294 | 888 ft | 96 kts | 64° |
| 2026-04-19 16:46 | 51.98677 | 15.45364 | 828 ft | 111 kts | 63° |
| 2026-04-19 16:46 | 51.99018 | 15.46483 | 862 ft | 110 kts | 65° |
| 2026-04-19 16:46 | 51.99198 | 15.47610 | 1047 ft | 96 kts | 95° |
| 2026-04-19 16:47 | 51.98949 | 15.48580 | 1260 ft | 93 kts | 128° |
| 2026-04-19 16:47 | 51.98519 | 15.49276 | 1505 ft | 86 kts | 144° |
| 2026-04-19 16:47 | 51.97989 | 15.49983 | 1482 ft | 106 kts | 142° |
| 2026-04-19 16:47 | 51.97409 | 15.50801 | 1445 ft | 112 kts | 140° |
| 2026-04-19 16:48 | 51.96823 | 15.51710 | 1196 ft | 128 kts | 135° |
| 2026-04-19 16:48 | 51.96245 | 15.52694 | 1249 ft | 112 kts | 135° |
| 2026-04-19 16:48 | 51.95693 | 15.53630 | 1103 ft | 120 kts | 136° |
| 2026-04-19 16:48 | 51.95167 | 15.54518 | 1290 ft | 100 kts | 135° |
| 2026-04-19 16:49 | 51.94663 | 15.55372 | 1269 ft | 107 kts | 136° |
| 2026-04-19 16:49 | 51.94142 | 15.56250 | 1282 ft | 110 kts | 135° |
| 2026-04-19 16:49 | 51.93648 | 15.57078 | 1516 ft | 95 kts | 135° |
| 2026-04-19 16:49 | 51.93206 | 15.57819 | 1731 ft | 91 kts | 135° |
| 2026-04-19 16:50 | 51.92769 | 15.58560 | 1929 ft | 91 kts | 135° |
| 2026-04-19 16:50 | 51.92286 | 15.59195 | 2089 ft | 90 kts | 159° |
| 2026-04-19 16:50 | 51.91724 | 15.59637 | 2275 ft | 90 kts | 155° |
| 2026-04-19 16:50 | 51.91254 | 15.60289 | 2431 ft | 92 kts | 117° |
| 2026-04-19 16:51 | 51.91098 | 15.61290 | 2584 ft | 92 kts | 104° |
| 2026-04-19 16:51 | 51.90929 | 15.62297 | 2744 ft | 93 kts | 105° |
| 2026-04-19 16:51 | 51.90753 | 15.63365 | 2792 ft | 104 kts | 105° |
| 2026-04-19 16:51 | 51.90560 | 15.64523 | 2801 ft | 107 kts | 106° |
| 2026-04-19 16:52 | 51.90346 | 15.65678 | 2803 ft | 108 kts | 109° |
| 2026-04-19 16:52 | 51.90110 | 15.66849 | 2800 ft | 110 kts | 109° |
| 2026-04-19 16:52 | 51.89872 | 15.68030 | 2801 ft | 110 kts | 109° |
| 2026-04-19 16:52 | 51.89736 | 15.69246 | 2795 ft | 110 kts | 95° |
| 2026-04-19 16:53 | 51.89668 | 15.70471 | 2846 ft | 107 kts | 96° |
| 2026-04-19 16:53 | 51.89600 | 15.71658 | 2908 ft | 106 kts | 96° |
| 2026-04-19 16:53 | 51.89530 | 15.72849 | 2963 ft | 106 kts | 96° |
| 2026-04-19 16:53 | 51.89461 | 15.74040 | 3018 ft | 106 kts | 96° |
| 2026-04-19 16:54 | 51.89390 | 15.75231 | 3064 ft | 106 kts | 96° |
| 2026-04-19 16:54 | 51.89067 | 15.76248 | 3079 ft | 106 kts | 149° |
| 2026-04-19 16:54 | 51.88386 | 15.76252 | 3082 ft | 103 kts | 215° |
| 2026-04-19 16:54 | 51.88129 | 15.75255 | 3084 ft | 102 kts | 281° |
| 2026-04-19 16:55 | 51.88621 | 15.74504 | 3082 ft | 105 kts | 348° |
| 2026-04-19 16:55 | 51.89329 | 15.76168 | 3092 ft | 109 kts | 100° |
| 2026-04-19 16:55 | 51.89239 | 15.77392 | 3098 ft | 110 kts | 96° |
| 2026-04-19 16:56 | 51.89156 | 15.78630 | 3099 ft | 111 kts | 96° |
| 2026-04-19 16:56 | 51.89076 | 15.79869 | 3095 ft | 110 kts | 96° |
| 2026-04-19 16:56 | 51.88997 | 15.81078 | 3095 ft | 107 kts | 96° |
| 2026-04-19 16:56 | 51.88922 | 15.82267 | 3091 ft | 105 kts | 96° |
| 2026-04-19 16:57 | 51.88847 | 15.83414 | 3086 ft | 98 kts | 96° |
| 2026-04-19 16:57 | 51.88786 | 15.84393 | 3056 ft | 83 kts | 96° |
| 2026-04-19 16:57 | 51.88730 | 15.85319 | 3000 ft | 80 kts | 96° |
| 2026-04-19 16:57 | 51.88680 | 15.86166 | 2991 ft | 75 kts | 96° |
| 2026-04-19 16:58 | 51.88627 | 15.87083 | 3088 ft | 88 kts | 96° |
| 2026-04-19 16:58 | 51.88565 | 15.88154 | 3106 ft | 102 kts | 96° |
| 2026-04-19 16:58 | 51.88493 | 15.89345 | 3106 ft | 109 kts | 96° |
| 2026-04-19 16:58 | 51.88418 | 15.90565 | 3097 ft | 102 kts | 96° |
| 2026-04-19 16:59 | 51.88355 | 15.91586 | 3081 ft | 90 kts | 96° |
| 2026-04-19 16:59 | 51.88292 | 15.92681 | 3090 ft | 104 kts | 96° |
| 2026-04-19 16:59 | 51.88235 | 15.93874 | 3097 ft | 109 kts | 91° |
| 2026-04-19 16:59 | 51.88226 | 15.95108 | 3098 ft | 111 kts | 91° |
| 2026-04-19 17:00 | 51.88232 | 15.96349 | 3096 ft | 110 kts | 88° |
| 2026-04-19 17:00 | 51.88184 | 15.97583 | 3098 ft | 110 kts | 97° |
| 2026-04-19 17:00 | 51.88106 | 15.98823 | 3099 ft | 111 kts | 96° |
| 2026-04-19 17:00 | 51.88028 | 16.00067 | 3098 ft | 110 kts | 97° |
| 2026-04-19 17:01 | 51.87955 | 16.01284 | 3094 ft | 109 kts | 94° |
| 2026-04-19 17:01 | 51.87909 | 16.02476 | 3096 ft | 105 kts | 96° |
| 2026-04-19 17:01 | 51.87831 | 16.03685 | 3091 ft | 109 kts | 96° |
| 2026-04-19 17:01 | 51.87782 | 16.04919 | 3083 ft | 111 kts | 86° |
| 2026-04-19 17:02 | 51.88170 | 16.05878 | 3024 ft | 110 kts | 13° |
| 2026-04-19 17:02 | 51.88776 | 16.05403 | 3051 ft | 101 kts | 310° |
| 2026-04-19 17:02 | 51.89254 | 16.04495 | 3023 ft | 101 kts | 310° |
| 2026-04-19 17:02 | 51.89711 | 16.03672 | 3080 ft | 101 kts | 311° |
| 2026-04-19 17:03 | 51.90203 | 16.02817 | 3025 ft | 108 kts | 312° |
| 2026-04-19 17:03 | 51.90748 | 16.01905 | 2838 ft | 116 kts | 313° |
| 2026-04-19 17:03 | 51.91329 | 16.00980 | 2701 ft | 115 kts | 315° |
| 2026-04-19 17:03 | 51.91894 | 16.00089 | 2553 ft | 114 kts | 307° |
| 2026-04-19 17:04 | 51.92231 | 15.98923 | 2399 ft | 114 kts | 291° |
| 2026-04-19 17:04 | 51.92535 | 15.97735 | 2253 ft | 114 kts | 292° |
| 2026-04-19 17:04 | 51.92837 | 15.96572 | 2194 ft | 108 kts | 292° |
| 2026-04-19 17:04 | 51.92951 | 15.95411 | 2173 ft | 104 kts | 258° |
| 2026-04-19 17:05 | 51.92462 | 15.94630 | 2176 ft | 105 kts | 195° |
| 2026-04-19 17:05 | 51.91792 | 15.95003 | 2178 ft | 109 kts | 133° |
| 2026-04-19 17:05 | 51.91375 | 15.96034 | 2184 ft | 110 kts | 125° |
| 2026-04-19 17:05 | 51.90926 | 15.97084 | 2048 ft | 120 kts | 126° |
| 2026-04-19 17:06 | 51.90371 | 15.98100 | 1893 ft | 121 kts | 137° |
| 2026-04-19 17:06 | 51.89774 | 15.99050 | 1759 ft | 120 kts | 137° |
| 2026-04-19 17:06 | 51.89185 | 16.00004 | 1630 ft | 119 kts | 136° |
| 2026-04-19 17:06 | 51.88604 | 16.00964 | 1503 ft | 119 kts | 136° |
| 2026-04-19 17:07 | 51.88127 | 16.01991 | 1481 ft | 112 kts | 135° |
| 2026-04-19 17:07 | 51.87436 | 16.02325 | 1480 ft | 106 kts | 198° |
| 2026-04-19 17:07 | 51.86987 | 16.01502 | 1470 ft | 102 kts | 263° |
| 2026-04-19 17:07 | 51.87293 | 16.00528 | 1483 ft | 104 kts | 326° |
| 2026-04-19 17:08 | 51.87794 | 15.99736 | 1478 ft | 102 kts | 295° |
| 2026-04-19 17:08 | 51.88102 | 15.98695 | 1486 ft | 103 kts | 296° |
| 2026-04-19 17:08 | 51.88405 | 15.97722 | 1660 ft | 92 kts | 296° |
| 2026-04-19 17:08 | 51.88694 | 15.96800 | 1752 ft | 92 kts | 296° |
| 2026-04-19 17:09 | 51.88946 | 15.95847 | 1862 ft | 93 kts | 290° |
| 2026-04-19 17:09 | 51.89184 | 15.94879 | 1964 ft | 93 kts | 291° |
| 2026-04-19 17:09 | 51.89418 | 15.93906 | 2065 ft | 93 kts | 291° |
| 2026-04-19 17:09 | 51.89656 | 15.92934 | 2182 ft | 93 kts | 291° |
| 2026-04-19 17:10 | 51.89890 | 15.91971 | 2331 ft | 87 kts | 291° |
| 2026-04-19 17:10 | 51.90105 | 15.91083 | 2513 ft | 85 kts | 291° |
| 2026-04-19 17:10 | 51.90331 | 15.90194 | 2666 ft | 85 kts | 295° |
| 2026-04-19 17:10 | 51.90603 | 15.89342 | 2818 ft | 85 kts | 295° |
| 2026-04-19 17:11 | 51.90873 | 15.88484 | 2967 ft | 86 kts | 296° |
| 2026-04-19 17:11 | 51.91136 | 15.87613 | 3087 ft | 90 kts | 292° |
| 2026-04-19 17:11 | 51.91417 | 15.86647 | 3099 ft | 97 kts | 294° |
| 2026-04-19 17:11 | 51.91684 | 15.85634 | 3097 ft | 96 kts | 291° |
| 2026-04-19 17:12 | 51.91877 | 15.84637 | 3094 ft | 91 kts | 285° |
| 2026-04-19 17:12 | 51.92140 | 15.83690 | 3096 ft | 96 kts | 297° |
| 2026-04-19 17:12 | 51.92320 | 15.82640 | 3098 ft | 101 kts | 278° |
| 2026-04-19 17:12 | 51.92406 | 15.81507 | 3098 ft | 102 kts | 274° |
| 2026-04-19 17:13 | 51.92468 | 15.80355 | 3097 ft | 103 kts | 276° |
| 2026-04-19 17:13 | 51.92602 | 15.79217 | 3098 ft | 103 kts | 283° |
| 2026-04-19 17:13 | 51.92739 | 15.78078 | 3098 ft | 103 kts | 277° |
| 2026-04-19 17:13 | 51.92807 | 15.76921 | 3098 ft | 103 kts | 275° |
| 2026-04-19 17:14 | 51.92939 | 15.75782 | 3098 ft | 103 kts | 283° |
| 2026-04-19 17:14 | 51.93092 | 15.74645 | 3097 ft | 104 kts | 282° |
| 2026-04-19 17:14 | 51.93155 | 15.73490 | 3095 ft | 104 kts | 268° |
| 2026-04-19 17:14 | 51.93207 | 15.72335 | 3097 ft | 103 kts | 283° |
| 2026-04-19 17:15 | 51.93360 | 15.71199 | 3095 ft | 104 kts | 280° |
| 2026-04-19 17:15 | 51.93477 | 15.70044 | 3097 ft | 104 kts | 278° |
| 2026-04-19 17:15 | 51.93577 | 15.68879 | 3098 ft | 105 kts | 278° |
| 2026-04-19 17:15 | 51.93658 | 15.67963 | 3095 ft | 105 kts | 278° |
| 2026-04-19 17:16 | 51.93698 | 15.67531 | 3094 ft | 105 kts | 278° |
| 2026-04-19 17:16 | 51.93802 | 15.66370 | 3094 ft | 104 kts | 278° |
| 2026-04-19 17:16 | 51.93907 | 15.65215 | 3095 ft | 104 kts | 278° |
| 2026-04-19 17:16 | 51.93975 | 15.64445 | 3093 ft | 104 kts | 278° |
| 2026-04-19 17:17 | 51.94078 | 15.63288 | 3091 ft | 103 kts | 278° |
| 2026-04-19 17:17 | 51.94180 | 15.62137 | 3092 ft | 103 kts | 278° |
| 2026-04-19 17:17 | 51.94282 | 15.60985 | 3090 ft | 103 kts | 278° |
| 2026-04-19 17:17 | 51.94382 | 15.59831 | 3089 ft | 103 kts | 278° |
| 2026-04-19 17:18 | 51.94483 | 15.58681 | 3090 ft | 103 kts | 278° |
| 2026-04-19 17:18 | 51.94584 | 15.57525 | 3089 ft | 104 kts | 278° |
| 2026-04-19 17:18 | 51.94685 | 15.56368 | 3089 ft | 104 kts | 278° |
| 2026-04-19 17:18 | 51.94792 | 15.55232 | 3085 ft | 103 kts | 294° |
| 2026-04-19 17:19 | 51.94978 | 15.54671 | 3083 ft | 103 kts | 298° |
| 2026-04-19 17:19 | 51.95280 | 15.53701 | 3031 ft | 108 kts | 294° |
| 2026-04-19 17:19 | 51.95512 | 15.52597 | 3092 ft | 100 kts | 276° |
| 2026-04-19 17:19 | 51.95657 | 15.51456 | 3026 ft | 104 kts | 294° |
| 2026-04-19 17:20 | 51.96094 | 15.50545 | 2949 ft | 109 kts | 323° |
| 2026-04-19 17:20 | 51.96881 | 15.50232 | 2379 ft | 118 kts | 2° |
| 2026-04-19 17:20 | 51.97647 | 15.50238 | 1892 ft | 100 kts | 340° |
| 2026-04-19 17:20 | 51.98242 | 15.50546 | 1580 ft | 84 kts | 19° |
| 2026-04-19 17:21 | 51.98767 | 15.50211 | 1214 ft | 84 kts | 311° |
| 2026-04-19 17:21 | 51.98946 | 15.49373 | 1008 ft | 77 kts | 256° |
| 2026-04-19 17:21 | 51.98666 | 15.48667 | 717 ft | 73 kts | 240° |
| 2026-04-19 17:21 | 51.98442 | 15.47947 | 478 ft | 70 kts | 246° |
| 2026-04-19 17:22 | 51.98235 | 15.47235 | 298 ft | 69 kts | 247° |
| 2026-04-19 17:22 | 51.98061 | 15.46533 | 243 ft | 57 kts | 252° |
| 2026-04-19 17:22 | 51.97863 | 15.45942 | 297 ft | 66 kts | 245° |
| 2026-04-19 17:22 | 51.97687 | 15.45279 | 497 ft | 64 kts | 251° |
| 2026-04-19 17:23 | 51.97633 | 15.44599 | 686 ft | 63 kts | 291° |
| 2026-04-19 17:23 | 51.97987 | 15.44012 | 765 ft | 84 kts | 318° |
| 2026-04-19 17:23 | 51.98544 | 15.43865 | 909 ft | 91 kts | 20° |
| 2026-04-19 17:23 | 51.98981 | 15.44660 | 899 ft | 107 kts | 58° |
| 2026-04-19 17:24 | 51.99209 | 15.45357 | 891 ft | 111 kts | 65° |
| 2026-04-19 17:25 | 51.99355 | 15.45927 | 963 ft | 105 kts | 67° |
| 2026-04-19 17:25 | 51.99624 | 15.47050 | 961 ft | 112 kts | 68° |
| 2026-04-19 17:25 | 51.99603 | 15.48242 | 916 ft | 105 kts | 117° |
| 2026-04-19 17:26 | 51.99027 | 15.48772 | 751 ft | 100 kts | 184° |
| 2026-04-19 17:26 | 51.98539 | 15.48245 | 575 ft | 80 kts | 253° |
| 2026-04-19 17:26 | 51.98324 | 15.47506 | 374 ft | 73 kts | 244° |
| 2026-04-19 17:26 | 51.98104 | 15.46753 | 259 ft | 73 kts | 247° |
| 2026-04-19 17:27 | 51.97907 | 15.46127 | 249 ft | 38 kts | 216° |
| 2026-04-19 17:27 | 51.97739 | 15.46186 | 250 ft | 20 kts | 157° |
| 2026-04-19 17:27 | 51.97656 | 15.46270 | 252 ft | 9 kts | 134° |
| 2026-04-19 17:27 | 51.97614 | 15.46343 | 256 ft | 7 kts | 120° |
| 2026-04-19 17:28 | 51.97596 | 15.46396 | 256 ft | 3 kts | 120° |
| 2026-04-19 17:28 | 51.97587 | 15.46415 | 256 ft | 4 kts | 144° |
| 2026-04-19 17:28 | 51.97585 | 15.46446 | 256 ft | 5 kts | 23° |
| 2026-04-19 17:28 | 51.97588 | 15.46447 | 256 ft | 0 kts | 317° |
| 2026-04-19 17:40 | 51.97589 | 15.46446 | 256 ft | 2 kts | 317° |
| 2026-04-19 17:40 | 51.97616 | 15.46278 | 256 ft | 28 kts | 279° |
| 2026-04-19 17:40 | 51.97725 | 15.46098 | 248 ft | 19 kts | 16° |
| 2026-04-19 17:40 | 51.97817 | 15.46357 | 250 ft | 38 kts | 61° |
| 2026-04-19 17:41 | 51.97936 | 15.46738 | 247 ft | 37 kts | 62° |
| 2026-04-19 17:41 | 51.98046 | 15.46950 | 249 ft | 10 kts | 338° |
| 2026-04-19 17:41 | 51.98063 | 15.46876 | 249 ft | 5 kts | 270° |
| 2026-04-19 17:41 | 51.98062 | 15.46861 | 249 ft | 2 kts | 253° |
| 2026-04-19 17:42 | 51.98061 | 15.46856 | 249 ft | 0 kts | 245° |
| 2026-04-19 17:43 | 51.98048 | 15.46806 | 248 ft | 22 kts | 253° |
| 2026-04-19 17:43 | 51.97930 | 15.46340 | 255 ft | 63 kts | 251° |
| 2026-04-19 17:43 | 51.97794 | 15.45677 | 424 ft | 64 kts | 255° |
| 2026-04-19 17:44 | 51.97604 | 15.44986 | 585 ft | 68 kts | 245° |
| 2026-04-19 17:44 | 51.97418 | 15.44234 | 743 ft | 74 kts | 260° |
| 2026-04-19 17:44 | 51.97723 | 15.43553 | 813 ft | 89 kts | 323° |
| 2026-04-19 17:44 | 51.98220 | 15.43031 | 1003 ft | 85 kts | 330° |
| 2026-04-19 17:45 | 51.98789 | 15.43408 | 1051 ft | 98 kts | 52° |
| 2026-04-19 17:45 | 51.99187 | 15.44392 | 1013 ft | 111 kts | 60° |
| 2026-04-19 17:45 | 51.99513 | 15.45523 | 1033 ft | 111 kts | 71° |
| 2026-04-19 17:45 | 51.99634 | 15.46757 | 1060 ft | 109 kts | 87° |
| 2026-04-19 17:46 | 51.99703 | 15.47956 | 1141 ft | 107 kts | 76° |
| 2026-04-19 17:46 | 51.99769 | 15.49116 | 1097 ft | 98 kts | 118° |
| 2026-04-19 17:46 | 51.99302 | 15.49406 | 960 ft | 75 kts | 206° |
| 2026-04-19 17:46 | 51.98880 | 15.48825 | 739 ft | 76 kts | 229° |
| 2026-04-19 17:47 | 51.98553 | 15.48190 | 545 ft | 67 kts | 236° |
| 2026-04-19 17:47 | 51.98321 | 15.47571 | 367 ft | 66 kts | 245° |
| 2026-04-19 17:47 | 51.98092 | 15.46978 | 260 ft | 57 kts | 242° |
| 2026-04-19 17:47 | 51.97936 | 15.46476 | 247 ft | 51 kts | 246° |
| 2026-04-19 17:48 | 51.97780 | 15.45815 | 332 ft | 65 kts | 253° |
| 2026-04-19 17:48 | 51.97660 | 15.45144 | 535 ft | 59 kts | 262° |
| 2026-04-19 17:48 | 51.97973 | 15.44650 | 591 ft | 81 kts | 337° |
| 2026-04-19 17:48 | 51.98551 | 15.44324 | 648 ft | 90 kts | 340° |
| 2026-04-19 17:49 | 51.99149 | 15.44062 | 818 ft | 87 kts | 7° |
| 2026-04-19 17:49 | 51.99512 | 15.44872 | 824 ft | 105 kts | 69° |
| 2026-04-19 17:49 | 51.99695 | 15.46010 | 901 ft | 97 kts | 92° |
| 2026-04-19 17:49 | 52.00084 | 15.46787 | 814 ft | 108 kts | 52° |
| 2026-04-19 17:50 | 52.00325 | 15.47799 | 1086 ft | 84 kts | 101° |
| 2026-04-19 17:50 | 51.99823 | 15.48307 | 1088 ft | 90 kts | 166° |
| 2026-04-19 17:50 | 51.99248 | 15.48879 | 1046 ft | 106 kts | 146° |
| 2026-04-19 17:50 | 51.98773 | 15.48674 | 1008 ft | 80 kts | 251° |
| 2026-04-19 17:51 | 51.98513 | 15.47971 | 651 ft | 72 kts | 250° |
| 2026-04-19 17:51 | 51.98294 | 15.47271 | 340 ft | 66 kts | 243° |
| 2026-04-19 17:51 | 51.98097 | 15.46643 | 244 ft | 53 kts | 248° |
| 2026-04-19 17:51 | 51.97909 | 15.46097 | 284 ft | 63 kts | 243° |
| 2026-04-19 17:52 | 51.97735 | 15.45419 | 448 ft | 66 kts | 248° |
| 2026-04-19 17:52 | 51.97515 | 15.44797 | 640 ft | 65 kts | 232° |
| 2026-04-19 17:52 | 51.97151 | 15.44279 | 750 ft | 76 kts | 225° |
| 2026-04-19 17:52 | 51.96790 | 15.43587 | 893 ft | 77 kts | 252° |
| 2026-04-19 17:53 | 51.97123 | 15.42944 | 876 ft | 98 kts | 330° |
| 2026-04-19 17:53 | 51.97769 | 15.42496 | 899 ft | 99 kts | 340° |
| 2026-04-19 17:53 | 51.98358 | 15.42001 | 1001 ft | 97 kts | 329° |
| 2026-04-19 17:53 | 51.98961 | 15.41712 | 1202 ft | 88 kts | 12° |
| 2026-04-19 17:54 | 51.99282 | 15.42574 | 1212 ft | 103 kts | 71° |
| 2026-04-19 17:54 | 51.99546 | 15.43710 | 1211 ft | 109 kts | 72° |
| 2026-04-19 17:54 | 51.99725 | 15.44903 | 1229 ft | 110 kts | 81° |
| 2026-04-19 17:54 | 51.99945 | 15.46081 | 1256 ft | 109 kts | 63° |
| 2026-04-19 17:55 | 52.00302 | 15.47149 | 1353 ft | 102 kts | 59° |
| 2026-04-19 17:55 | 52.00198 | 15.48104 | 1302 ft | 107 kts | 164° |
| 2026-04-19 17:55 | 51.99502 | 15.48642 | 1146 ft | 112 kts | 153° |
| 2026-04-19 17:55 | 51.98796 | 15.49039 | 1029 ft | 101 kts | 193° |
| 2026-04-19 17:56 | 51.98421 | 15.48127 | 631 ft | 102 kts | 247° |
| 2026-04-19 17:56 | 51.98168 | 15.47254 | 322 ft | 71 kts | 243° |
| 2026-04-19 17:56 | 51.97988 | 15.46671 | 246 ft | 46 kts | 247° |
| 2026-04-19 17:56 | 51.97828 | 15.46096 | 314 ft | 57 kts | 249° |
| 2026-04-19 17:57 | 51.97598 | 15.45549 | 441 ft | 67 kts | 241° |
| 2026-04-19 17:57 | 51.97577 | 15.45486 | 454 ft | 68 kts | 243° |
| 2026-04-19 17:57 | 51.97334 | 15.44780 | 577 ft | 76 kts | 240° |
| 2026-04-19 17:58 | 51.97088 | 15.43900 | 640 ft | 89 kts | 260° |
| 2026-04-19 17:58 | 51.97371 | 15.43026 | 667 ft | 99 kts | 327° |
| 2026-04-19 17:58 | 51.97945 | 15.42475 | 780 ft | 97 kts | 328° |
| 2026-04-19 17:58 | 51.98551 | 15.41960 | 896 ft | 89 kts | 341° |
| 2026-04-19 17:59 | 51.99102 | 15.42352 | 913 ft | 105 kts | 68° |
| 2026-04-19 17:59 | 51.99376 | 15.43437 | 891 ft | 111 kts | 59° |
| 2026-04-19 17:59 | 51.99744 | 15.44549 | 887 ft | 112 kts | 66° |
| 2026-04-19 17:59 | 52.00131 | 15.45618 | 885 ft | 111 kts | 54° |
| 2026-04-19 18:00 | 52.00460 | 15.46733 | 914 ft | 107 kts | 89° |
| 2026-04-19 18:00 | 52.00074 | 15.47765 | 858 ft | 110 kts | 143° |
| 2026-04-19 18:00 | 51.99499 | 15.48480 | 921 ft | 109 kts | 133° |
| 2026-04-19 18:00 | 51.98963 | 15.49313 | 968 ft | 96 kts | 166° |
| 2026-04-19 18:01 | 51.98579 | 15.48596 | 728 ft | 89 kts | 254° |
| 2026-04-19 18:01 | 51.98349 | 15.47830 | 474 ft | 68 kts | 243° |
| 2026-04-19 18:01 | 51.98156 | 15.47202 | 290 ft | 56 kts | 242° |
| 2026-04-19 18:01 | 51.97994 | 15.46696 | 246 ft | 52 kts | 243° |
| 2026-04-19 18:02 | 51.97806 | 15.46039 | 354 ft | 66 kts | 252° |
| 2026-04-19 18:02 | 51.97596 | 15.45355 | 457 ft | 77 kts | 234° |
| 2026-04-19 18:02 | 51.97323 | 15.44646 | 602 ft | 79 kts | 246° |
| 2026-04-19 18:02 | 51.97083 | 15.43833 | 723 ft | 81 kts | 242° |
| 2026-04-19 18:03 | 51.97038 | 15.43040 | 893 ft | 75 kts | 306° |
| 2026-04-19 18:03 | 51.97553 | 15.42563 | 893 ft | 93 kts | 335° |
| 2026-04-19 18:03 | 51.98191 | 15.42210 | 954 ft | 97 kts | 344° |
| 2026-04-19 18:03 | 51.98820 | 15.41928 | 1123 ft | 91 kts | 345° |
| 2026-04-19 18:04 | 51.99344 | 15.42263 | 1153 ft | 100 kts | 72° |
| 2026-04-19 18:04 | 51.99575 | 15.43409 | 1095 ft | 111 kts | 76° |
| 2026-04-19 18:04 | 51.99764 | 15.44609 | 1122 ft | 109 kts | 69° |
| 2026-04-19 18:04 | 52.00042 | 15.45767 | 1114 ft | 111 kts | 69° |
| 2026-04-19 18:05 | 52.00360 | 15.46915 | 1080 ft | 115 kts | 61° |
| 2026-04-19 18:05 | 52.00518 | 15.48030 | 1150 ft | 99 kts | 142° |
| 2026-04-19 18:05 | 51.99881 | 15.48675 | 862 ft | 111 kts | 137° |
| 2026-04-19 18:05 | 51.99243 | 15.49263 | 924 ft | 100 kts | 152° |
| 2026-04-19 18:06 | 51.98832 | 15.49586 | 958 ft | 88 kts | 186° |
| 2026-04-19 18:06 | 51.98729 | 15.48833 | 757 ft | 103 kts | 261° |
| 2026-04-19 18:06 | 51.98498 | 15.47924 | 551 ft | 78 kts | 239° |
| 2026-04-19 18:06 | 51.98285 | 15.47215 | 326 ft | 66 kts | 245° |
| 2026-04-19 18:07 | 51.97877 | 15.46034 | 251 ft | 75 kts | 239° |
| 2026-04-19 18:07 | 51.97642 | 15.45316 | 396 ft | 75 kts | 249° |
| 2026-04-19 18:07 | 51.97562 | 15.44922 | 548 ft | 7 kts | 332° |
| 2026-04-19 18:08 | 51.97530 | 15.44603 | 551 ft | 87 kts | 262° |
| 2026-04-19 18:08 | 51.97473 | 15.44025 | 703 ft | 76 kts | 264° |
| 2026-04-19 18:08 | 51.97512 | 15.43133 | 674 ft | 98 kts | 298° |
| 2026-04-19 18:08 | 51.98012 | 15.42327 | 719 ft | 97 kts | 324° |
| 2026-04-19 18:09 | 51.98552 | 15.41767 | 914 ft | 87 kts | 325° |
| 2026-04-19 18:09 | 51.99002 | 15.42181 | 931 ft | 100 kts | 86° |
| 2026-04-19 18:09 | 51.99338 | 15.43193 | 835 ft | 111 kts | 42° |
| 2026-04-19 18:09 | 51.99682 | 15.44273 | 853 ft | 107 kts | 58° |
| 2026-04-19 18:10 | 52.00081 | 15.45309 | 860 ft | 107 kts | 62° |
| 2026-04-19 18:10 | 52.00341 | 15.46441 | 905 ft | 100 kts | 66° |
| 2026-04-19 18:10 | 52.00694 | 15.47388 | 893 ft | 97 kts | 70° |
| 2026-04-19 18:10 | 52.00464 | 15.48205 | 1047 ft | 93 kts | 155° |
| 2026-04-19 18:11 | 51.99801 | 15.48718 | 932 ft | 110 kts | 156° |
| 2026-04-19 18:11 | 51.99154 | 15.49322 | 998 ft | 102 kts | 154° |
| 2026-04-19 18:11 | 51.98645 | 15.49000 | 891 ft | 91 kts | 252° |
| 2026-04-19 18:11 | 51.98432 | 15.48091 | 519 ft | 79 kts | 244° |
| 2026-04-19 18:12 | 51.98229 | 15.47398 | 353 ft | 64 kts | 248° |
| 2026-04-19 18:12 | 51.98040 | 15.46744 | 261 ft | 66 kts | 246° |
| 2026-04-19 18:12 | 51.97868 | 15.46128 | 249 ft | 53 kts | 238° |
| 2026-04-19 18:12 | 51.97701 | 15.45447 | 309 ft | 72 kts | 257° |
| 2026-04-19 18:13 | 51.97586 | 15.44647 | 429 ft | 73 kts | 257° |
| 2026-04-19 18:13 | 51.97382 | 15.43980 | 654 ft | 60 kts | 210° |
| 2026-04-19 18:13 | 51.97562 | 15.43527 | 682 ft | 81 kts | 337° |
| 2026-04-19 18:13 | 51.98079 | 15.43062 | 759 ft | 93 kts | 326° |
| 2026-04-19 18:14 | 51.98658 | 15.42534 | 803 ft | 98 kts | 359° |
| 2026-04-19 18:14 | 51.99055 | 15.43371 | 792 ft | 107 kts | 68° |
| 2026-04-19 18:14 | 51.99425 | 15.44427 | 758 ft | 114 kts | 60° |
| 2026-04-19 18:14 | 51.99797 | 15.45540 | 740 ft | 111 kts | 52° |
| 2026-04-19 18:15 | 52.00234 | 15.46574 | 773 ft | 108 kts | 55° |
| 2026-04-19 18:15 | 52.00609 | 15.47618 | 804 ft | 105 kts | 70° |
| 2026-04-19 18:15 | 52.00453 | 15.48528 | 806 ft | 88 kts | 136° |
| 2026-04-19 18:15 | 51.99979 | 15.49200 | 791 ft | 94 kts | 148° |
| 2026-04-19 18:16 | 51.99385 | 15.49532 | 808 ft | 88 kts | 196° |
| 2026-04-19 18:16 | 51.98879 | 15.48893 | 604 ft | 102 kts | 234° |
| 2026-04-19 18:16 | 51.98562 | 15.48043 | 528 ft | 68 kts | 246° |
| 2026-04-19 18:16 | 51.98338 | 15.47391 | 370 ft | 70 kts | 243° |
| 2026-04-19 18:17 | 51.98113 | 15.46689 | 263 ft | 63 kts | 245° |
| 2026-04-19 18:17 | 51.97945 | 15.46136 | 247 ft | 46 kts | 241° |
| 2026-04-19 18:17 | 51.97735 | 15.45591 | 374 ft | 56 kts | 245° |
| 2026-04-19 18:17 | 51.97532 | 15.44929 | 433 ft | 71 kts | 255° |
| 2026-04-19 18:18 | 51.97421 | 15.44156 | 541 ft | 73 kts | 255° |
| 2026-04-19 18:18 | 51.97630 | 15.43442 | 620 ft | 90 kts | 349° |
| 2026-04-19 18:18 | 51.98242 | 15.43463 | 799 ft | 81 kts | 339° |
| 2026-04-19 18:18 | 51.98535 | 15.42589 | 739 ft | 93 kts | 324° |
| 2026-04-19 18:19 | 51.98873 | 15.43209 | 813 ft | 99 kts | 82° |
| 2026-04-19 18:19 | 51.99264 | 15.44197 | 775 ft | 104 kts | 55° |
| 2026-04-19 18:19 | 51.99687 | 15.45009 | 646 ft | 111 kts | 65° |
| 2026-04-19 18:19 | 52.00106 | 15.45925 | 855 ft | 93 kts | 52° |
| 2026-04-19 18:20 | 52.00374 | 15.46951 | 860 ft | 100 kts | 91° |
| 2026-04-19 18:20 | 51.99956 | 15.47829 | 826 ft | 105 kts | 147° |
| 2026-04-19 18:20 | 51.99749 | 15.48600 | 758 ft | 79 kts | 98° |
| 2026-04-19 18:20 | 51.99210 | 15.48955 | 717 ft | 98 kts | 185° |
| 2026-04-19 18:21 | 51.98563 | 15.48455 | 547 ft | 104 kts | 225° |
| 2026-04-19 18:21 | 51.98301 | 15.47659 | 405 ft | 68 kts | 246° |
| 2026-04-19 18:21 | 51.98064 | 15.46913 | 270 ft | 77 kts | 245° |
| 2026-04-19 18:21 | 51.97876 | 15.46165 | 249 ft | 63 kts | 247° |
| 2026-04-19 18:22 | 51.97658 | 15.45528 | 351 ft | 65 kts | 240° |
| 2026-04-19 18:22 | 51.97432 | 15.44815 | 481 ft | 69 kts | 251° |
| 2026-04-19 18:22 | 51.97222 | 15.44170 | 713 ft | 56 kts | 269° |
| 2026-04-19 18:22 | 51.97607 | 15.43733 | 729 ft | 88 kts | 337° |
| 2026-04-19 18:23 | 51.98200 | 15.43494 | 809 ft | 96 kts | 352° |
| 2026-04-19 18:23 | 51.98874 | 15.43322 | 841 ft | 94 kts | 354° |
| 2026-04-19 18:23 | 51.99311 | 15.43876 | 850 ft | 83 kts | 77° |
| 2026-04-19 18:23 | 51.99323 | 15.44850 | 668 ft | 105 kts | 69° |
| 2026-04-19 18:24 | 51.99840 | 15.45751 | 691 ft | 99 kts | 36° |
| 2026-04-19 18:24 | 52.00258 | 15.46609 | 800 ft | 99 kts | 76° |
| 2026-04-19 18:24 | 51.99970 | 15.47519 | 851 ft | 85 kts | 156° |
| 2026-04-19 18:24 | 51.99560 | 15.48019 | 746 ft | 74 kts | 145° |
| 2026-04-19 18:25 | 51.99139 | 15.48467 | 694 ft | 69 kts | 144° |
| 2026-04-19 18:25 | 51.98672 | 15.48637 | 550 ft | 74 kts | 197° |
| 2026-04-19 18:25 | 51.98395 | 15.48016 | 390 ft | 66 kts | 253° |
| 2026-04-19 18:25 | 51.98212 | 15.47382 | 300 ft | 66 kts | 242° |
| 2026-04-19 18:26 | 51.98013 | 15.46735 | 251 ft | 58 kts | 248° |
| 2026-04-19 18:26 | 51.97879 | 15.46192 | 249 ft | 48 kts | 233° |
| 2026-04-19 18:26 | 51.97672 | 15.45606 | 365 ft | 61 kts | 249° |
| 2026-04-19 18:26 | 51.97519 | 15.44937 | 503 ft | 70 kts | 251° |
| 2026-04-19 18:27 | 51.97288 | 15.44123 | 615 ft | 80 kts | 232° |
| 2026-04-19 18:27 | 51.97230 | 15.43315 | 644 ft | 93 kts | 322° |
| 2026-04-19 18:27 | 51.97847 | 15.43494 | 732 ft | 94 kts | 29° |
| 2026-04-19 18:27 | 51.98344 | 15.43077 | 737 ft | 100 kts | 298° |
| 2026-04-19 18:28 | 51.98841 | 15.42249 | 741 ft | 100 kts | 333° |
| 2026-04-19 18:28 | 51.99467 | 15.42306 | 830 ft | 104 kts | 46° |
| 2026-04-19 18:28 | 51.99686 | 15.43441 | 794 ft | 113 kts | 86° |
| 2026-04-19 18:28 | 51.99721 | 15.44760 | 682 ft | 115 kts | 84° |
| 2026-04-19 18:29 | 51.99866 | 15.46022 | 670 ft | 113 kts | 78° |
| 2026-04-19 18:29 | 52.00018 | 15.47095 | 749 ft | 85 kts | 76° |
| 2026-04-19 18:29 | 52.00301 | 15.47919 | 804 ft | 86 kts | 47° |
| 2026-04-19 18:29 | 52.00027 | 15.48799 | 758 ft | 104 kts | 149° |
| 2026-04-19 18:30 | 51.99332 | 15.49050 | 763 ft | 102 kts | 183° |
| 2026-04-19 18:30 | 51.98701 | 15.48663 | 604 ft | 99 kts | 215° |
| 2026-04-19 18:30 | 51.98324 | 15.47856 | 438 ft | 79 kts | 255° |
| 2026-04-19 18:30 | 51.98120 | 15.47120 | 274 ft | 67 kts | 242° |
| 2026-04-19 18:31 | 51.97942 | 15.46541 | 247 ft | 47 kts | 249° |
| 2026-04-19 18:31 | 51.97804 | 15.46233 | 250 ft | 25 kts | 186° |
| 2026-04-19 18:31 | 51.97713 | 15.46193 | 250 ft | 12 kts | 165° |
| 2026-04-19 18:31 | 51.97626 | 15.46277 | 255 ft | 15 kts | 150° |
| 2026-04-19 18:32 | 51.97572 | 15.46348 | 256 ft | 8 kts | 141° |
| 2026-04-19 18:32 | 51.97539 | 15.46390 | 256 ft | 4 kts | 140° |
| 2026-04-19 18:32 | 51.97530 | 15.46403 | 256 ft | 0 kts | 138° |
| 2026-04-19 18:33 | 51.97526 | 15.46410 | 256 ft | 0 kts | 90° |
| 2026-04-19 18:34 | 51.97527 | 15.46414 | 256 ft | 3 kts | 80° |
| 2026-04-19 18:34 | 51.97523 | 15.46425 | 256 ft | 1 kts | 155° |
| 2026-04-19 18:34 | 51.97511 | 15.46437 | 256 ft | 0 kts | 100° |
| 2026-04-19 18:34 | 51.97516 | 15.46444 | 256 ft | 4 kts | 24° |
| 2026-04-19 18:35 | 51.97520 | 15.46444 | 256 ft | 0 kts | 284° |
| 2026-04-19 18:35 | 51.97520 | 15.46438 | 256 ft | 0 kts | 270° |